createdAt,value
2023-04-14T00:01:54.401Z,1.52
2023-04-14T00:05:00.576Z,2.05
2023-04-14T00:08:04.467Z,1.45
2023-04-14T00:11:10.860Z,2.55
2023-04-14T00:14:18.224Z,3.47
2023-04-14T00:17:23.096Z,2.65
2023-04-14T00:20:28.269Z,1.40
2023-04-14T00:23:31.918Z,1.23
2023-04-14T00:26:35.787Z,1.85
2023-04-14T00:29:39.761Z,1.60
2023-04-14T00:32:43.767Z,1.92
2023-04-14T00:35:51.582Z,4.50
2023-04-14T00:38:55.648Z,1.52
2023-04-14T00:41:59.348Z,1.50
2023-04-14T00:45:02.892Z,1.42
2023-04-14T00:48:08.328Z,1.38
2023-04-14T00:51:13.764Z,1.95
2023-04-14T00:54:20.063Z,1.27
2023-04-14T00:57:25.143Z,3.17
2023-04-14T01:00:28.969Z,1.45
2023-04-14T01:03:34.373Z,2.92
2023-04-14T01:06:39.548Z,1.85
2023-04-14T01:09:44.772Z,2.45
2023-04-14T01:13:06.582Z,1.05
2023-04-14T01:16:16.550Z,2.00
2023-04-14T01:19:36.926Z,1.35
2023-04-14T01:22:48.453Z,3.58
2023-04-14T01:26:15.510Z,3.97
2023-04-14T01:29:46.259Z,2.97
2023-04-14T01:32:53.958Z,1.25
2023-04-14T01:36:00.826Z,1.45
2023-04-14T01:39:08.486Z,1.55
2023-04-14T01:42:16.345Z,2.75
2023-04-14T01:45:21.360Z,3.40
2023-04-14T01:48:27.551Z,0.85
2023-04-14T01:51:31.948Z,2.17
2023-04-14T01:54:36.679Z,3.80
2023-04-14T01:57:46.747Z,1.10
2023-04-14T02:00:53.512Z,0.98
2023-04-14T02:03:59.763Z,3.05
2023-04-14T02:07:12.394Z,4.50
2023-04-14T02:10:17.801Z,1.60
2023-04-14T02:13:23.838Z,1.67
2023-04-14T02:16:27.754Z,4.28
2023-04-14T02:19:34.693Z,1.00
2023-04-14T02:22:39.512Z,0.70
2023-04-14T02:25:52.956Z,1.52
2023-04-14T02:29:03.079Z,1.05
2023-04-14T02:32:09.577Z,1.50
2023-04-14T02:35:17.797Z,1.25
2023-04-14T02:38:24.974Z,1.25
2023-04-14T02:41:30.676Z,1.52
2023-04-14T02:44:37.116Z,0.95
2023-04-14T02:47:43.606Z,1.42
2023-04-14T02:50:50.872Z,0.82
2023-04-14T02:53:58.336Z,1.23
2023-04-14T02:57:16.554Z,1.50
2023-04-14T03:00:27.480Z,2.70
2023-04-14T03:03:32.207Z,0.80
2023-04-14T03:06:39.914Z,1.30
2023-04-14T03:09:44.829Z,1.50
2023-04-14T03:12:52.246Z,1.05
2023-04-14T03:15:56.697Z,0.98
2023-04-14T03:19:14.591Z,1.38
2023-04-14T03:22:23.853Z,1.17
2023-04-14T03:25:31.346Z,2.97
2023-04-14T03:28:39.889Z,1.70
2023-04-14T03:31:48.005Z,1.27
2023-04-14T03:34:55.452Z,2.60
2023-04-14T03:38:02.454Z,1.58
2023-04-14T03:41:09.525Z,3.78
2023-04-14T03:44:15.716Z,2.42
2023-04-14T03:47:24.678Z,1.13
2023-04-14T03:50:31.401Z,1.02
2023-04-14T03:53:40.942Z,1.58
2023-04-14T03:56:48.475Z,1.27
2023-04-14T03:59:53.478Z,1.88
2023-04-14T04:03:00.857Z,2.42
2023-04-14T04:06:19.928Z,1.20
2023-04-14T04:09:26.059Z,2.25
2023-04-14T04:12:30.692Z,5.53
2023-04-14T04:15:35.756Z,1.08
2023-04-14T04:18:47.306Z,2.33
2023-04-14T04:21:54.918Z,0.95
2023-04-14T04:25:00.483Z,3.67
2023-04-14T04:28:09.197Z,1.73
2023-04-14T04:31:13.488Z,1.33
2023-04-14T04:34:18.556Z,5.63
2023-04-14T04:37:28.237Z,1.42
2023-04-14T04:40:39.233Z,3.47
2023-04-14T04:43:49.666Z,2.38
2023-04-14T04:46:55.189Z,2.25
2023-04-14T04:50:05.933Z,1.40
2023-04-14T04:53:10.445Z,3.83
2023-04-14T04:56:18.604Z,1.23
2023-04-14T04:59:22.801Z,2.58
2023-04-14T05:02:27.351Z,2.08
2023-04-14T05:05:32.490Z,1.80
2023-04-14T05:08:36.866Z,3.00
2023-04-14T05:11:42.136Z,1.92
2023-04-14T05:14:46.362Z,1.65
2023-04-14T05:17:50.091Z,2.35
2023-04-14T05:21:05.572Z,2.15
2023-04-14T05:24:10.606Z,6.72
2023-04-14T05:27:15.757Z,1.88
2023-04-14T05:30:20.691Z,2.50
2023-04-14T05:33:24.983Z,2.33
2023-04-14T05:36:29.768Z,1.90
2023-04-14T05:39:33.474Z,3.20
2023-04-14T05:42:41.133Z,1.98
2023-04-14T05:45:47.032Z,2.42
2023-04-14T05:48:50.789Z,2.28
2023-04-14T05:51:57.500Z,2.45
2023-04-14T05:55:01.519Z,2.45
2023-04-14T05:58:07.126Z,2.00
2023-04-14T06:01:10.887Z,2.45
2023-04-14T06:04:15.451Z,3.08
2023-04-14T06:07:20.349Z,1.83
2023-04-14T06:10:23.794Z,1.55
2023-04-14T06:13:32.000Z,4.20
2023-04-14T06:16:40.057Z,4.82
2023-04-14T06:19:45.662Z,3.97
2023-04-14T06:22:49.288Z,1.42
2023-04-14T06:25:53.610Z,3.45
2023-04-14T06:29:00.857Z,4.38
2023-04-14T06:32:11.218Z,5.22
2023-04-14T06:35:29.741Z,2.10
2023-04-14T06:38:36.978Z,2.20
2023-04-14T06:41:40.692Z,1.45
2023-04-14T06:44:48.934Z,2.40
2023-04-14T06:47:52.851Z,3.13
2023-04-14T06:50:57.337Z,5.38
2023-04-14T06:54:01.643Z,3.75
2023-04-14T06:57:07.219Z,4.72
2023-04-14T07:00:13.875Z,4.90
2023-04-14T07:03:20.973Z,3.72
2023-04-14T07:06:25.327Z,3.50
2023-04-14T07:09:29.979Z,4.97
2023-04-14T07:12:37.205Z,3.60
2023-04-14T07:15:47.788Z,4.75
2023-04-14T07:18:51.886Z,3.95
2023-04-14T07:21:56.102Z,7.97
2023-04-14T07:25:01.405Z,5.43
2023-04-14T07:28:05.168Z,3.92
2023-04-14T07:31:10.974Z,3.92
2023-04-14T07:34:16.136Z,7.40
2023-04-14T07:37:21.073Z,5.28
2023-04-14T07:40:24.866Z,9.18
2023-04-14T07:43:34.817Z,3.55
2023-04-14T07:46:39.707Z,4.32
2023-04-14T07:49:43.603Z,7.10
2023-04-14T07:52:47.617Z,5.13
2023-04-14T07:55:51.861Z,2.78
2023-04-14T07:58:56.626Z,2.70
2023-04-14T08:02:02.877Z,5.78
2023-04-14T08:05:07.044Z,3.60
2023-04-14T08:08:12.355Z,1.10
2023-04-14T08:11:16.437Z,2.45
2023-04-14T08:14:20.182Z,5.88
2023-04-14T08:17:25.677Z,2.33
2023-04-14T08:20:29.131Z,1.83
2023-04-14T08:23:33.254Z,5.85
2023-04-14T08:26:40.730Z,4.45
2023-04-14T08:29:45.835Z,7.95
2023-04-14T08:32:51.213Z,5.80
2023-04-14T08:35:57.845Z,3.75
2023-04-14T08:39:04.071Z,1.27
2023-04-14T08:42:07.748Z,5.90
2023-04-14T08:45:11.873Z,3.45
2023-04-14T08:48:20.296Z,2.22
2023-04-14T08:51:28.758Z,1.80
2023-04-14T08:54:33.105Z,4.25
2023-04-14T08:57:37.397Z,2.22
2023-04-14T09:00:41.117Z,5.75
2023-04-14T09:03:46.589Z,2.65
2023-04-14T09:06:50.650Z,3.40
2023-04-14T09:09:54.734Z,1.70
2023-04-14T09:12:58.873Z,1.50
2023-04-14T09:16:02.779Z,4.15
2023-04-14T09:19:10.586Z,2.17
2023-04-14T09:22:14.113Z,5.35
2023-04-14T09:25:18.799Z,4.55
2023-04-14T09:28:23.364Z,5.22
2023-04-14T09:31:27.707Z,1.65
2023-04-14T09:34:33.509Z,7.00
2023-04-14T09:37:44.884Z,3.97
2023-04-14T09:40:48.800Z,4.97
2023-04-14T09:43:52.765Z,4.95
2023-04-14T09:47:00.304Z,7.80
2023-04-14T09:50:07.297Z,8.05
2023-04-14T09:53:11.417Z,3.17
2023-04-14T09:56:16.235Z,3.47
2023-04-14T09:59:31.927Z,4.65
2023-04-14T10:02:49.223Z,4.95
2023-04-14T10:05:54.280Z,6.28
2023-04-14T10:08:59.447Z,1.92
2023-04-14T10:12:10.313Z,1.90
2023-04-14T10:15:17.321Z,5.90
2023-04-14T10:18:21.503Z,1.95
2023-04-14T10:21:29.549Z,7.18
2023-04-14T10:24:33.702Z,4.88
2023-04-14T10:27:38.145Z,4.93
2023-04-14T10:30:44.203Z,2.00
2023-04-14T10:33:48.562Z,3.13
2023-04-14T10:36:54.495Z,2.03
2023-04-14T10:39:59.616Z,2.78
2023-04-14T10:43:05.050Z,2.08
2023-04-14T10:46:09.797Z,5.22
2023-04-14T10:49:13.696Z,6.18
2023-04-14T10:55:52.253Z,5.45
2023-04-14T10:58:56.369Z,5.65
2023-04-14T11:02:00.404Z,2.08
2023-04-14T11:05:05.172Z,4.97
2023-04-14T11:08:14.769Z,3.05
2023-04-14T11:11:20.088Z,4.65
2023-04-14T11:14:28.408Z,2.22
2023-04-14T11:17:33.295Z,2.30
2023-04-14T11:20:42.460Z,4.72
2023-04-14T11:23:47.468Z,3.72
2023-04-14T11:27:00.049Z,2.63
2023-04-14T11:30:07.131Z,3.78
2023-04-14T11:33:11.117Z,3.38
2023-04-14T11:36:17.677Z,4.70
2023-04-14T11:39:21.368Z,3.50
2023-04-14T11:42:27.074Z,4.25
2023-04-14T11:45:31.201Z,2.85
2023-04-14T11:48:37.430Z,2.63
2023-04-14T11:51:41.729Z,5.70
2023-04-14T11:54:46.405Z,6.47
2023-04-14T11:57:52.368Z,3.80
2023-04-14T12:00:58.396Z,4.72
2023-04-14T12:04:02.310Z,1.90
2023-04-14T12:07:12.889Z,7.13
2023-04-14T12:10:21.410Z,5.85
2023-04-14T12:13:28.175Z,2.15
2023-04-14T12:16:34.333Z,1.67
2023-04-14T12:19:38.610Z,2.78
2023-04-14T12:22:43.389Z,2.92
2023-04-14T12:25:47.518Z,3.75
2023-04-14T12:28:58.793Z,1.92
2023-04-14T12:32:04.474Z,5.05
2023-04-14T12:35:08.884Z,7.55
2023-04-14T12:38:14.922Z,3.80
2023-04-14T12:41:23.881Z,3.35
2023-04-14T12:44:30.415Z,2.72
2023-04-14T12:47:35.448Z,2.00
2023-04-14T12:50:40.120Z,3.70
2023-04-14T12:53:45.318Z,3.47
2023-04-14T12:56:48.953Z,6.80
2023-04-14T12:59:54.265Z,2.38
2023-04-14T13:02:58.013Z,7.80
2023-04-14T13:06:02.362Z,5.25
2023-04-14T13:09:06.765Z,6.88
2023-04-14T13:12:10.982Z,7.10
2023-04-14T13:16:11.984Z,4.78
2023-04-14T13:18:40.262Z,5.35
2023-04-14T13:21:44.381Z,6.57
2023-04-14T13:24:50.255Z,4.50
2023-04-14T13:27:54.154Z,5.82
2023-04-14T13:30:59.696Z,8.52
2023-04-14T13:34:03.517Z,5.25
2023-04-14T13:37:07.620Z,4.78
2023-04-14T13:40:13.399Z,6.32
2023-04-14T13:43:18.346Z,3.28
2023-04-14T13:46:23.601Z,3.05
2023-04-14T13:49:28.808Z,8.23
2023-04-14T13:52:36.807Z,7.00
2023-04-14T13:55:41.436Z,3.50
2023-04-14T13:58:45.356Z,1.90
2023-04-14T14:01:51.547Z,6.60
2023-04-14T14:04:55.643Z,4.40
2023-04-14T14:07:59.341Z,4.03
2023-04-14T14:11:03.151Z,3.30
2023-04-14T14:14:07.317Z,6.55
2023-04-14T14:17:12.536Z,4.57
2023-04-14T14:20:15.985Z,4.43
2023-04-14T14:23:20.414Z,6.60
2023-04-14T14:26:26.457Z,4.38
2023-04-14T14:29:30.696Z,2.63
2023-04-14T14:32:35.529Z,2.42
2023-04-14T14:35:40.878Z,3.53
2023-04-14T14:38:45.094Z,3.55
2023-04-14T14:41:50.487Z,2.33
2023-04-14T14:44:55.243Z,4.05
2023-04-14T14:48:00.837Z,3.47
2023-04-14T14:51:07.326Z,3.50
2023-04-14T14:54:11.478Z,7.07
2023-04-14T14:57:15.758Z,8.07
2023-04-14T15:00:22.964Z,4.60
2023-04-14T15:03:31.993Z,4.68
2023-04-14T15:06:37.616Z,5.40
2023-04-14T15:09:43.151Z,4.28
2023-04-14T15:12:47.134Z,5.25
2023-04-14T15:15:53.593Z,4.40
2023-04-14T15:18:58.853Z,3.53
2023-04-14T15:22:03.752Z,5.80
2023-04-14T15:25:10.576Z,3.55
2023-04-14T15:28:14.604Z,4.68
2023-04-14T15:31:18.524Z,3.92
2023-04-14T15:34:23.853Z,2.63
2023-04-14T15:37:29.765Z,5.28
2023-04-14T15:40:34.863Z,2.53
2023-04-14T15:43:41.350Z,2.80
2023-04-14T15:46:45.614Z,2.33
2023-04-14T15:49:52.416Z,2.45
2023-04-14T15:53:09.526Z,2.65
2023-04-14T15:56:13.366Z,2.67
2023-04-14T15:59:19.720Z,3.88
2023-04-14T16:02:23.901Z,6.03
2023-04-14T16:05:29.409Z,4.40
2023-04-14T16:08:33.196Z,7.72
2023-04-14T16:11:37.255Z,4.47
2023-04-14T16:14:42.961Z,4.72
2023-04-14T16:17:47.608Z,6.20
2023-04-14T16:20:53.385Z,7.22
2023-04-14T16:23:58.072Z,7.45
2023-04-14T16:27:01.976Z,7.65
2023-04-14T16:30:06.104Z,7.85
2023-04-14T16:33:09.669Z,6.50
2023-04-14T16:36:16.491Z,6.85
2023-04-14T16:39:20.401Z,5.03
2023-04-14T16:42:25.051Z,5.20
2023-04-14T16:45:29.197Z,7.72
2023-04-14T16:48:35.112Z,7.80
2023-04-14T16:51:41.263Z,11.75
2023-04-14T16:54:46.050Z,7.32
2023-04-14T16:57:52.755Z,6.80
2023-04-14T17:00:56.683Z,8.10
2023-04-14T17:04:02.328Z,4.72
2023-04-14T17:07:07.640Z,6.45
2023-04-14T17:10:12.061Z,8.30
2023-04-14T17:13:24.704Z,6.82
2023-04-14T17:16:28.811Z,7.28
2023-04-14T17:19:33.222Z,5.85
2023-04-14T17:22:39.486Z,6.93
2023-04-14T17:25:48.146Z,5.68
2023-04-14T17:28:53.847Z,4.95
2023-04-14T17:31:59.575Z,9.45
2023-04-14T17:35:03.918Z,5.68
2023-04-14T17:38:09.293Z,4.75
2023-04-14T17:41:13.612Z,5.03
2023-04-14T17:44:17.739Z,7.95
2023-04-14T17:47:22.432Z,6.72
2023-04-14T17:50:27.580Z,5.63
2023-04-14T17:53:33.076Z,6.47
2023-04-14T17:56:36.872Z,7.88
2023-04-14T17:59:41.761Z,8.80
2023-04-14T18:02:45.450Z,7.40
2023-04-14T18:05:50.409Z,5.22
2023-04-14T18:08:55.754Z,6.65
2023-04-14T18:12:02.121Z,4.43
2023-04-14T18:15:06.540Z,6.00
2023-04-14T18:18:13.327Z,7.78
2023-04-14T18:21:17.704Z,8.00
2023-04-14T18:30:39.607Z,5.45
2023-04-14T18:33:43.582Z,6.88
2023-04-14T18:36:49.791Z,6.53
2023-04-14T18:39:55.092Z,6.70
2023-04-14T18:42:59.143Z,5.50
2023-04-14T18:46:16.852Z,7.32
2023-04-14T18:49:20.752Z,10.32
2023-04-14T18:52:27.490Z,8.52
2023-04-14T18:55:40.674Z,5.45
2023-04-14T18:58:50.251Z,6.97
2023-04-14T19:01:53.988Z,5.63
2023-04-14T19:04:57.891Z,6.90
2023-04-14T19:08:02.108Z,6.50
2023-04-14T19:11:07.870Z,6.47
2023-04-14T19:14:11.333Z,6.78
2023-04-14T19:17:14.990Z,5.50
2023-04-14T19:20:18.851Z,6.15
2023-04-14T19:23:22.584Z,4.55
2023-04-14T19:26:27.909Z,6.32
2023-04-14T19:29:32.148Z,6.90
2023-04-14T19:32:35.965Z,7.47
2023-04-14T19:35:40.295Z,9.60
2023-04-14T19:38:44.094Z,7.55
2023-04-14T19:41:51.136Z,7.82
2023-04-14T19:44:54.843Z,10.85
2023-04-14T19:47:58.714Z,6.13
2023-04-14T19:51:04.012Z,7.75
2023-04-14T19:54:08.206Z,8.30
2023-04-14T19:57:13.752Z,8.43
2023-04-14T20:00:20.643Z,9.90
2023-04-14T20:03:25.294Z,10.07
2023-04-14T20:06:29.471Z,11.77
2023-04-14T20:09:45.895Z,9.02
2023-04-14T20:12:52.048Z,8.57
2023-04-14T20:15:56.177Z,9.23
2023-04-14T20:19:01.788Z,9.13
2023-04-14T20:22:05.825Z,8.93
2023-04-14T20:25:10.572Z,9.68
2023-04-14T20:28:16.713Z,8.50
2023-04-14T20:31:22.284Z,7.78
2023-04-14T20:34:27.024Z,7.68
2023-04-14T20:37:32.056Z,8.32
2023-04-14T20:40:36.051Z,7.45
2023-04-14T20:43:43.542Z,7.93
2023-04-14T20:46:47.367Z,7.00
2023-04-14T20:49:50.952Z,8.07
2023-04-14T20:52:54.464Z,9.35
2023-04-14T20:55:58.256Z,8.68
2023-04-14T20:59:05.256Z,7.25
2023-04-14T21:02:09.502Z,7.82
2023-04-14T21:05:15.338Z,11.20
2023-04-14T21:08:19.704Z,9.55
2023-04-14T21:11:23.354Z,12.32
2023-04-14T21:15:40.642Z,9.02
2023-04-14T21:17:53.459Z,11.55
2023-04-14T21:20:58.631Z,10.02
2023-04-14T21:24:02.466Z,10.10
2023-04-14T21:27:06.097Z,10.10
2023-04-14T21:30:11.988Z,10.65
2023-04-14T21:33:17.140Z,8.98
2023-04-14T21:36:20.755Z,9.40
2023-04-14T21:39:28.518Z,13.48
2023-04-14T21:42:32.623Z,8.27
2023-04-14T21:45:37.879Z,8.82
2023-04-14T21:48:42.728Z,7.50
2023-04-14T21:51:48.074Z,8.18
2023-04-14T21:54:51.542Z,8.65
2023-04-14T21:57:55.902Z,6.28
2023-04-14T22:01:02.499Z,7.50
2023-04-14T22:04:08.230Z,6.15
2023-04-14T22:07:13.126Z,6.90
2023-04-14T22:10:17.064Z,5.82
2023-04-14T22:13:22.224Z,7.05
2023-04-14T22:16:28.622Z,7.47
2023-04-14T22:19:32.899Z,6.85
2023-04-14T22:22:38.304Z,7.32
2023-04-14T22:25:42.775Z,6.60
2023-04-14T22:28:46.982Z,5.57
2023-04-14T22:31:54.397Z,4.97
2023-04-14T22:34:57.937Z,4.65
2023-04-14T22:38:02.341Z,5.03
2023-04-14T22:41:06.328Z,4.97
2023-04-14T22:44:10.117Z,5.68
2023-04-14T22:47:16.611Z,5.22
2023-04-14T22:50:20.524Z,5.13
2023-04-14T22:53:27.490Z,4.90
2023-04-14T22:56:31.736Z,5.80
2023-04-14T22:59:37.046Z,5.57
2023-04-14T23:02:42.506Z,5.35
2023-04-14T23:05:46.659Z,7.50
2023-04-14T23:08:50.976Z,3.53
2023-04-14T23:11:56.179Z,3.35
2023-04-14T23:15:00.300Z,3.53
2023-04-14T23:18:06.132Z,3.65
2023-04-14T23:21:11.691Z,2.90
2023-04-14T23:24:15.359Z,3.53
2023-04-14T23:27:19.615Z,4.88
2023-04-14T23:30:27.876Z,2.13
2023-04-14T23:33:34.224Z,2.92
2023-04-14T23:36:39.079Z,2.50
2023-04-14T23:39:47.072Z,5.10
2023-04-14T23:42:52.084Z,3.10
2023-04-14T23:45:56.184Z,5.63
2023-04-14T23:49:23.450Z,4.25
2023-04-14T23:52:27.094Z,3.35
2023-04-14T23:55:30.904Z,3.22
2023-04-14T23:58:34.769Z,4.18
